Time;durP1;ratioP1;P1;durP2;ratioP2;P2;SDS_P1;SDS_P2;PMS_P1;PMS_P2;Temp;Humidity;BMP_temperature;BMP_pressure;BME280_temperature;BME280_humidity;BME280_pressure;Samples;Min_cycle;Max_cycle;Signal;HPM_P1;HPM_P2
2022/09/08 00:00:48;;;;;;;14.75;5.05;;;;;;;18.85;77.79;100756.44;4976668;28;20027;-91
2022/09/08 00:03:15;;;;;;;12.15;4.60;;;;;;;18.36;81.19;100775.94;4975091;28;20042;-91
2022/09/08 00:05:50;;;;;;;13.88;4.43;;;;;;;17.88;84.16;100766.41;4974009;28;20027;-89
2022/09/08 00:08:20;;;;;;;12.02;3.90;;;;;;;17.53;87.15;100745.06;4986920;28;20023;-87
2022/09/08 00:10:47;;;;;;;13.25;4.63;;;;;;;17.38;91.31;100731.03;4970793;28;20030;-86
2022/09/08 00:13:13;;;;;;;14.65;4.65;;;;;;;17.25;92.61;100733.00;4972439;28;20034;-86
2022/09/08 00:15:38;;;;;;;14.00;4.40;;;;;;;17.30;95.54;100744.22;4973007;28;20466;-85
2022/09/08 00:18:06;;;;;;;10.15;4.10;;;;;;;17.12;95.02;100730.44;4975397;28;20098;-83
2022/09/08 00:20:31;;;;;;;8.60;4.00;;;;;;;17.07;96.64;100732.66;4979445;28;20038;-85
2022/09/08 00:22:56;;;;;;;10.57;3.72;;;;;;;16.89;95.27;100734.97;4985187;28;20027;-84
2022/09/08 00:25:22;;;;;;;12.45;4.47;;;;;;;16.73;95.63;100734.47;4971201;28;20259;-84
2022/09/08 00:27:47;;;;;;;12.35;4.18;;;;;;;16.63;96.62;100728.91;4971521;28;20042;-85
2022/09/08 00:30:12;;;;;;;9.05;4.30;;;;;;;16.62;98.19;100719.13;4970177;28;20015;-83
2022/09/08 00:32:37;;;;;;;11.48;4.30;;;;;;;16.66;99.24;100709.84;4969837;28;20449;-84
2022/09/08 00:35:07;;;;;;;11.10;4.20;;;;;;;16.64;98.89;100689.47;4971757;28;20035;-85
2022/09/08 00:37:33;;;;;;;11.45;4.13;;;;;;;16.59;98.31;100697.88;4972217;28;20492;-86
2022/09/08 00:39:58;;;;;;;10.23;4.28;;;;;;;16.49;99.17;100702.25;4970869;28;20302;-85
2022/09/08 00:42:24;;;;;;;10.98;4.53;;;;;;;16.41;100.00;100686.75;4971792;28;20058;-85
2022/09/08 00:44:49;;;;;;;9.85;3.88;;;;;;;16.36;100.00;100666.59;4958729;28;20070;-85
2022/09/08 00:47:28;;;;;;;11.20;4.22;;;;;;;16.54;99.97;100677.72;4951718;29;20038;-85
2022/09/08 00:50:09;;;;;;;11.05;4.32;;;;;;;16.44;99.43;100659.66;4957982;28;20475;-86
2022/09/08 00:52:47;;;;;;;9.15;4.25;;;;;;;16.47;99.86;100668.41;4971500;28;20027;-86
2022/09/08 00:55:13;;;;;;;10.70;4.05;;;;;;;16.50;100.00;100663.66;4973746;28;20488;-85
2022/09/08 00:57:39;;;;;;;8.77;4.07;;;;;;;16.43;100.00;100655.25;4974474;28;20050;-85
2022/09/08 01:00:07;;;;;;;13.43;4.28;;;;;;;16.33;100.00;100646.19;4969401;28;20419;-84
2022/09/08 01:02:33;;;;;;;7.88;4.18;;;;;;;16.24;100.00;100629.94;4971034;28;20045;-85
2022/09/08 01:05:06;;;;;;;9.98;4.43;;;;;;;16.34;100.00;100645.19;4971700;28;20022;-85
2022/09/08 01:13:39;;;;;;;10.40;4.75;;;;;;;16.42;100.00;100629.34;4976926;28;20050;-86
2022/09/08 01:16:06;;;;;;;8.80;4.60;;;;;;;16.36;100.00;100629.00;4978358;28;20392;-86
2022/09/08 01:18:33;;;;;;;10.93;4.65;;;;;;;16.33;100.00;100635.44;4983824;28;20027;-85
2022/09/08 01:21:03;;;;;;;8.32;4.25;;;;;;;16.27;100.00;100633.25;4993597;28;20038;-85
2022/09/08 01:23:58;;;;;;;8.63;4.25;;;;;;;16.27;100.00;100633.25;4980145;28;20454;-85
2022/09/08 01:26:41;;;;;;;12.52;5.90;;;;;;;16.30;100.00;100646.44;4978016;28;20097;-85
2022/09/08 01:29:09;;;;;;;16.58;5.78;;;;;;;16.36;100.00;100645.09;4974554;28;20046;-84
2022/09/08 01:31:38;;;;;;;12.35;5.40;;;;;;;16.44;100.00;100631.94;4978614;28;20035;-83
2022/09/08 01:34:04;;;;;;;9.82;4.93;;;;;;;16.47;100.00;100639.75;4987503;28;20031;-84
2022/09/08 01:36:29;;;;;;;11.10;4.78;;;;;;;16.46;100.00;100631.78;4987021;28;20117;-85
2022/09/08 01:38:54;;;;;;;11.55;4.68;;;;;;;16.48;100.00;100632.53;4985815;28;20077;-84
2022/09/08 01:41:20;;;;;;;22.48;6.07;;;;;;;16.41;100.00;100605.31;4972277;28;20041;-86
2022/09/08 01:43:45;;;;;;;15.88;5.43;;;;;;;16.43;100.00;100608.75;4987824;28;20050;-86
2022/09/08 01:46:11;;;;;;;13.52;4.65;;;;;;;16.38;100.00;100621.66;4985444;28;20342;-87
2022/09/08 01:48:36;;;;;;;10.15;4.10;;;;;;;16.34;100.00;100620.19;4985735;28;20079;-84
2022/09/08 01:51:05;;;;;;;9.40;4.32;;;;;;;16.32;100.00;100611.41;4979623;28;20031;-85
2022/09/08 01:53:32;;;;;;;8.73;3.72;;;;;;;16.30;100.00;100611.53;4975140;28;20584;-85
2022/09/08 01:55:57;;;;;;;9.80;4.07;;;;;;;16.19;100.00;100604.31;4974494;28;20083;-85
2022/09/08 01:58:23;;;;;;;10.88;3.55;;;;;;;16.12;100.00;100594.16;4973764;28;20103;-86
2022/09/08 02:00:49;;;;;;;8.18;3.35;;;;;;;16.03;100.00;100590.38;4974284;28;20106;-87
2022/09/08 02:03:15;;;;;;;7.00;3.58;;;;;;;15.91;100.00;100580.56;4974558;28;20031;-87
2022/09/08 02:05:42;;;;;;;7.85;3.72;;;;;;;15.90;100.00;100574.34;4963733;28;20034;-86
2022/09/08 02:08:08;;;;;;;10.38;3.60;;;;;;;15.88;100.00;100575.44;4953884;28;20031;-86
2022/09/08 02:10:34;;;;;;;11.38;3.42;;;;;;;15.79;100.00;100568.09;4968482;28;20079;-86
2022/09/08 02:12:59;;;;;;;9.85;3.85;;;;;;;15.81;100.00;100569.69;4974262;28;20039;-86
2022/09/08 02:15:24;;;;;;;9.00;3.55;;;;;;;15.86;100.00;100570.19;4973858;28;20428;-87
2022/09/08 02:17:50;;;;;;;9.10;3.67;;;;;;;15.92;100.00;100576.91;4973749;28;20053;-86
2022/09/08 02:20:15;;;;;;;9.73;3.53;;;;;;;15.90;100.00;100579.72;4962305;28;20110;-87
2022/09/08 02:22:41;;;;;;;13.65;4.00;;;;;;;16.00;100.00;100576.31;4953264;29;20031;-87
2022/09/08 02:25:07;;;;;;;10.32;3.92;;;;;;;16.06;100.00;100581.22;4953930;29;20031;-87
2022/09/08 02:27:33;;;;;;;9.75;4.35;;;;;;;16.08;100.00;100574.75;4953393;29;20031;-85
2022/09/08 02:29:58;;;;;;;8.02;4.18;;;;;;;16.11;100.00;100566.47;4955578;28;20028;-87
2022/09/08 02:32:23;;;;;;;7.88;3.70;;;;;;;16.15;100.00;100572.44;4954039;29;20019;-86
2022/09/08 02:34:48;;;;;;;7.50;3.85;;;;;;;16.14;100.00;100574.28;4953449;29;20031;-86
2022/09/08 02:37:14;;;;;;;8.02;3.63;;;;;;;16.14;100.00;100582.34;4953230;29;20395;-87
2022/09/08 02:39:39;;;;;;;7.68;3.35;;;;;;;16.08;100.00;100582.81;4961912;28;20086;-86
2022/09/08 02:42:05;;;;;;;9.05;3.75;;;;;;;16.11;100.00;100584.41;4972934;28;20476;-86
2022/09/08 02:44:30;;;;;;;7.07;3.42;;;;;;;16.15;100.00;100589.41;4972767;28;20030;-85
2022/09/08 02:46:55;;;;;;;10.18;3.55;;;;;;;16.13;100.00;100585.97;4972870;28;20468;-85
2022/09/08 02:49:20;;;;;;;8.23;3.88;;;;;;;16.19;100.00;100581.97;4971696;28;20030;-86
2022/09/08 02:51:46;;;;;;;7.82;3.70;;;;;;;16.15;100.00;100575.97;4972409;28;20018;-85
2022/09/08 02:54:12;;;;;;;6.32;3.30;;;;;;;16.24;100.00;100557.44;4970832;28;20102;-85
2022/09/08 02:56:37;;;;;;;7.93;3.55;;;;;;;16.15;100.00;100546.44;4972076;28;20035;-86
2022/09/08 02:59:02;;;;;;;9.30;3.63;;;;;;;16.10;100.00;100551.34;4970188;28;20042;-85
2022/09/08 03:01:28;;;;;;;8.45;3.42;;;;;;;16.08;100.00;100574.75;4973312;28;20057;-85
2022/09/08 03:03:53;;;;;;;8.18;3.83;;;;;;;16.07;100.00;100580.25;4972400;28;20027;-85
2022/09/08 03:06:19;;;;;;;7.70;3.83;;;;;;;16.00;100.00;100590.59;4973200;28;20025;-85
2022/09/08 03:08:46;;;;;;;8.80;3.65;;;;;;;15.97;100.00;100593.53;4972226;28;20053;-85
2022/09/08 03:11:11;;;;;;;11.88;3.92;;;;;;;15.89;100.00;100580.72;4990997;28;20767;-85
2022/09/08 03:13:37;;;;;;;6.70;3.85;;;;;;;15.96;100.00;100581.06;4989297;28;20094;-85
2022/09/08 03:16:03;;;;;;;7.82;4.28;;;;;;;15.90;100.00;100577.03;4989432;28;20050;-86
2022/09/08 03:18:28;;;;;;;8.05;4.80;;;;;;;15.85;100.00;100581.91;4992547;28;20177;-86
2022/09/08 03:21:10;;;;;;;9.10;4.45;;;;;;;15.81;100.00;100575.06;4977338;28;20019;-86
2022/09/08 03:23:36;;;;;;;10.68;4.38;;;;;;;15.74;100.00;100567.59;4969863;28;20520;-86
2022/09/08 03:26:10;;;;;;;6.63;3.85;;;;;;;15.76;100.00;100579.06;4984796;28;20027;-86
2022/09/08 03:28:36;;;;;;;11.35;4.60;;;;;;;15.69;100.00;100578.69;4979788;28;20038;-85
2022/09/08 03:31:02;;;;;;;7.60;4.20;;;;;;;15.66;100.00;100595.03;4980495;28;20030;-86
2022/09/08 03:33:28;;;;;;;7.68;3.88;;;;;;;15.56;100.00;100602.88;4976104;28;20026;-84
2022/09/08 03:35:54;;;;;;;8.65;4.10;;;;;;;15.57;100.00;100606.41;4971144;28;20554;-85
2022/09/08 03:38:19;;;;;;;4.55;3.42;;;;;;;15.50;100.00;100595.28;4970488;28;20801;-86
2022/09/08 03:40:45;;;;;;;9.75;4.45;;;;;;;15.53;100.00;100586.16;4970901;28;20172;-85
2022/09/08 03:43:10;;;;;;;10.10;4.53;;;;;;;15.58;100.00;100578.63;4971238;28;20026;-86
2022/09/08 03:45:41;;;;;;;10.30;4.53;;;;;;;15.62;100.00;100553.25;4972245;28;20056;-85
2022/09/08 03:48:06;;;;;;;7.25;4.68;;;;;;;15.68;100.00;100569.78;4971440;28;20027;-85
2022/09/08 03:50:32;;;;;;;8.88;4.28;;;;;;;15.59;100.00;100550.81;4971365;28;20035;-86
2022/09/08 03:52:57;;;;;;;9.75;3.83;;;;;;;15.58;100.00;100546.41;4971515;28;20038;-86
2022/09/08 03:55:22;;;;;;;7.28;3.85;;;;;;;15.52;100.00;100546.91;4952910;28;20055;-86
2022/09/08 03:57:48;;;;;;;5.75;3.80;;;;;;;15.40;100.00;100551.38;4969937;28;20039;-85
2022/09/08 04:00:13;;;;;;;6.80;3.45;;;;;;;15.38;100.00;100553.28;4970374;28;20138;-85
2022/09/08 04:02:39;;;;;;;8.05;3.42;;;;;;;15.39;100.00;100568.44;4971687;28;20030;-87
2022/09/08 04:05:05;;;;;;;5.80;3.25;;;;;;;15.37;100.00;100571.22;4971571;28;20101;-86
2022/09/08 04:07:32;;;;;;;6.38;3.38;;;;;;;15.36;100.00;100569.50;4971923;28;20455;-86
2022/09/08 04:09:59;;;;;;;7.00;2.92;;;;;;;15.36;100.00;100577.56;4969498;28;20033;-86
2022/09/08 04:12:25;;;;;;;6.93;3.35;;;;;;;15.29;100.00;100568.25;4973052;28;20433;-86
2022/09/08 04:14:51;;;;;;;6.10;3.38;;;;;;;15.31;100.00;100574.38;4973341;28;20123;-86
2022/09/08 04:17:18;;;;;;;6.65;3.40;;;;;;;15.32;100.00;100573.41;4972417;28;20030;-87
2022/09/08 04:19:43;;;;;;;6.47;3.40;;;;;;;15.31;100.00;100576.19;4969068;28;20046;-85
2022/09/08 04:22:10;;;;;;;7.28;3.08;;;;;;;15.23;100.00;100574.09;4954070;28;20489;-86
2022/09/08 04:24:36;;;;;;;8.75;3.15;;;;;;;15.28;100.00;100581.78;4970777;28;20087;-87
2022/09/08 04:27:01;;;;;;;6.30;2.92;;;;;;;15.29;100.00;100580.81;4971631;28;20509;-85
2022/09/08 04:29:27;;;;;;;5.15;3.28;;;;;;;15.23;100.00;100578.59;4959021;28;20519;-86
2022/09/08 04:31:52;;;;;;;7.45;3.17;;;;;;;15.24;100.00;100583.84;4951930;29;20059;-86
2022/09/08 04:34:17;;;;;;;11.57;4.32;;;;;;;15.18;100.00;100582.47;4950002;28;20023;-85
2022/09/08 04:36:43;;;;;;;8.70;3.40;;;;;;;15.14;100.00;100586.34;4950000;29;20051;-86
2022/09/08 04:39:10;;;;;;;6.88;2.95;;;;;;;15.15;100.00;100587.22;4963609;28;20054;-84
2022/09/08 04:41:36;;;;;;;7.18;4.03;;;;;;;15.19;100.00;100588.69;4971704;28;20488;-84
2022/09/08 04:44:03;;;;;;;9.48;3.75;;;;;;;15.22;100.00;100591.16;4974680;28;20044;-84
2022/09/08 04:46:30;;;;;;;6.85;3.15;;;;;;;15.16;100.00;100591.59;4973471;28;20457;-82
2022/09/08 04:48:55;;;;;;;7.90;3.47;;;;;;;15.13;100.00;100591.81;4955133;28;20027;-85
2022/09/08 04:51:22;;;;;;;9.10;3.83;;;;;;;15.07;100.00;100589.59;4974367;28;20499;-84
2022/09/08 04:53:48;;;;;;;8.60;3.85;;;;;;;15.10;100.00;100602.78;4974111;28;20030;-85
2022/09/08 04:56:16;;;;;;;8.98;3.67;;;;;;;15.08;100.00;100596.66;4975241;28;20057;-85
2022/09/08 04:58:43;;;;;;;9.63;3.78;;;;;;;15.02;100.00;100589.94;4973855;28;20395;-84
2022/09/08 05:01:15;;;;;;;8.13;4.32;;;;;;;15.19;100.00;100604.78;4966441;28;20027;-85
2022/09/08 05:03:40;;;;;;;8.93;3.97;;;;;;;15.12;100.00;100598.16;4938036;29;20031;-86
2022/09/08 05:06:09;;;;;;;8.60;4.18;;;;;;;15.16;100.00;100600.47;4954350;29;20086;-85
2022/09/08 05:08:35;;;;;;;8.13;4.57;;;;;;;15.23;100.00;100592.84;4964108;28;20109;-85
2022/09/08 05:11:01;;;;;;;10.77;4.60;;;;;;;15.26;100.00;100602.47;4976299;28;20059;-85
2022/09/08 05:13:27;;;;;;;10.85;4.30;;;;;;;15.29;100.00;100599.56;4973939;28;20027;-85
2022/09/08 05:15:59;;;;;;;10.55;4.35;;;;;;;15.28;100.00;100598.72;4977937;28;20043;-84
2022/09/08 05:18:24;;;;;;;11.05;4.38;;;;;;;15.17;100.00;100596.84;4976525;28;20041;-84
2022/09/08 05:20:53;;;;;;;8.30;4.78;;;;;;;15.14;100.00;100598.91;4975976;28;20019;-85
2022/09/08 05:23:19;;;;;;;10.48;4.70;;;;;;;15.13;100.00;100584.66;4976719;28;20027;-85
2022/09/08 05:25:44;;;;;;;9.65;5.03;;;;;;;15.26;100.00;100592.63;4975832;28;20044;-85
2022/09/08 05:28:09;;;;;;;9.57;5.00;;;;;;;15.32;100.00;100596.69;4973755;28;20094;-85
2022/09/08 05:30:39;;;;;;;8.85;4.55;;;;;;;15.35;100.00;100604.50;4974304;28;20026;-84
2022/09/08 05:33:04;;;;;;;10.48;4.93;;;;;;;15.28;100.00;100598.72;4954725;29;20120;-84
2022/09/08 05:35:29;;;;;;;10.70;5.00;;;;;;;15.29;100.00;100595.06;4954711;29;20055;-85
2022/09/08 05:37:55;;;;;;;9.77;5.05;;;;;;;15.23;100.00;100576.78;4958405;28;20066;-85
2022/09/08 05:40:20;;;;;;;15.40;5.57;;;;;;;15.20;100.00;100583.19;4957093;28;20027;-84
2022/09/08 05:42:45;;;;;;;11.05;5.38;;;;;;;15.31;100.00;100586.94;4974048;28;20027;-86
2022/09/08 05:45:11;;;;;;;8.43;5.57;;;;;;;15.24;100.00;100589.19;4974958;28;20400;-86
2022/09/08 05:47:37;;;;;;;11.07;5.50;;;;;;;15.27;100.00;100593.50;4970437;28;20384;-85
2022/09/08 05:50:02;;;;;;;9.68;6.00;;;;;;;15.24;100.00;100597.25;4954304;29;20032;-85
2022/09/08 05:52:31;;;;;;;10.05;5.75;;;;;;;15.24;100.00;100605.28;4959635;28;20031;-84
2022/09/08 05:54:56;;;;;;;10.40;6.03;;;;;;;15.19;100.00;100602.94;4972192;28;20286;-85
2022/09/08 05:57:21;;;;;;;14.13;7.22;;;;;;;15.20;100.00;100588.56;4971952;28;20118;-84
2022/09/08 05:59:47;;;;;;;13.80;8.05;;;;;;;15.30;100.00;100595.91;4972931;28;20019;-84
2022/09/08 06:02:12;;;;;;;14.52;8.45;;;;;;;15.26;100.00;100595.31;4972947;28;20053;-83
2022/09/08 06:04:37;;;;;;;16.65;9.13;;;;;;;15.19;100.00;100594.06;4973429;28;20023;-83
2022/09/08 06:07:03;;;;;;;13.85;8.00;;;;;;;15.28;100.00;100593.38;4972426;28;20019;-84
2022/09/08 06:09:28;;;;;;;15.45;7.70;;;;;;;15.26;100.00;100599.78;4973948;28;20461;-84
2022/09/08 06:11:53;;;;;;;14.25;7.68;;;;;;;15.17;100.00;100594.19;4972318;28;20035;-84
2022/09/08 06:14:18;;;;;;;18.75;7.13;;;;;;;15.21;100.00;100602.81;4972795;28;20505;-85
2022/09/08 06:16:44;;;;;;;12.60;7.78;;;;;;;15.21;100.00;100597.47;4972568;28;20038;-84
2022/09/08 06:19:11;;;;;;;14.02;7.55;;;;;;;15.28;100.00;100604.09;4973614;28;20378;-84
2022/09/08 06:21:36;;;;;;;14.98;7.90;;;;;;;15.30;100.00;100599.47;4972689;28;20033;-84
2022/09/08 06:24:04;;;;;;;17.17;9.52;;;;;;;15.35;100.00;100607.19;4974237;28;20508;-84
2022/09/08 06:26:52;;;;;;;12.40;8.82;;;;;;;15.37;100.00;100610.59;4956408;28;20382;-84
2022/09/08 06:29:24;;;;;;;13.45;7.95;;;;;;;15.41;100.00;100617.44;4956470;28;20035;-85
2022/09/08 06:31:59;;;;;;;12.40;8.75;;;;;;;15.38;100.00;100612.28;4954538;29;20070;-86
2022/09/08 06:34:29;;;;;;;13.65;8.20;;;;;;;15.44;100.00;100603.81;4955150;29;20032;-85
2022/09/08 06:37:09;;;;;;;15.25;8.77;;;;;;;15.44;100.00;100606.50;4955546;28;20062;-86
2022/09/08 06:39:43;;;;;;;11.50;8.23;;;;;;;15.40;100.00;100610.38;4954086;29;20036;-86
2022/09/08 06:42:21;;;;;;;14.15;9.18;;;;;;;15.32;100.00;100605.56;4964717;28;20117;-85
2022/09/08 06:44:51;;;;;;;14.30;8.90;;;;;;;15.38;100.00;100615.84;4973571;28;20027;-85
2022/09/08 06:47:21;;;;;;;16.27;9.27;;;;;;;15.42;100.00;100622.72;4970001;28;20027;-85
2022/09/08 06:49:50;;;;;;;15.40;9.60;;;;;;;15.48;100.00;100613.34;4972665;28;20061;-85
2022/09/08 06:52:26;;;;;;;15.73;10.65;;;;;;;15.58;100.00;100614.34;4972231;28;20029;-85
2022/09/08 06:55:02;;;;;;;16.85;11.20;;;;;;;15.64;100.00;100610.34;4975180;28;20050;-86
2022/09/08 06:57:34;;;;;;;21.10;11.98;;;;;;;15.74;100.00;100616.75;4989339;28;20034;-85
2022/09/08 07:00:12;;;;;;;16.55;11.23;;;;;;;15.74;100.00;100615.91;4992824;28;20031;-85
2022/09/08 07:02:43;;;;;;;18.25;11.95;;;;;;;15.72;100.00;100618.72;4986931;28;20023;-85
2022/09/08 07:05:34;;;;;;;16.77;11.95;;;;;;;15.72;100.00;100621.41;4992979;28;20037;-87
2022/09/08 07:08:11;;;;;;;17.77;12.70;;;;;;;15.66;100.00;100616.47;4989019;28;20030;-86
2022/09/08 07:10:50;;;;;;;21.40;12.30;;;;;;;15.58;100.00;100617.03;4971908;28;20098;-85
2022/09/08 07:13:27;;;;;;;16.13;13.07;;;;;;;15.56;100.00;100621.66;4989728;28;20019;-88
2022/09/08 07:16:13;;;;;;;20.25;14.02;;;;;;;15.56;100.00;100620.81;4990831;28;20026;-87
2022/09/08 07:18:59;;;;;;;19.63;13.43;;;;;;;15.55;100.00;100627.13;4986282;28;20034;-87
2022/09/08 07:21:27;;;;;;;19.25;13.68;;;;;;;15.49;100.00;100624.91;4955443;29;20039;-86
2022/09/08 07:23:57;;;;;;;19.77;14.38;;;;;;;15.44;100.00;100615.38;4957794;29;20396;-86
2022/09/08 07:26:22;;;;;;;21.10;15.55;;;;;;;15.68;100.00;100622.59;4956885;28;20034;-86
2022/09/08 07:28:51;;;;;;;23.00;15.43;;;;;;;15.89;100.00;100628.16;4971722;28;20035;-87
2022/09/08 07:31:21;;;;;;;21.63;15.40;;;;;;;16.27;100.00;100616.28;4972722;28;20274;-87
2022/09/08 07:33:52;;;;;;;19.98;14.90;;;;;;;16.58;100.00;100623.63;4973268;28;20113;-87
2022/09/08 07:36:30;;;;;;;18.67;14.65;;;;;;;16.85;100.00;100622.44;4973141;28;20570;-87
2022/09/08 07:38:59;;;;;;;16.73;13.75;;;;;;;16.99;100.00;100626.69;4954559;29;20027;-87
2022/09/08 07:41:44;;;;;;;17.05;12.88;;;;;;;16.97;100.00;100618.75;4954611;29;20020;-88
2022/09/08 07:44:18;;;;;;;15.00;12.45;;;;;;;16.79;100.00;100626.47;4938422;29;20504;-88
2022/09/08 07:46:53;;;;;;;16.73;12.20;;;;;;;16.53;100.00;100631.19;4958724;28;20144;-88
2022/09/08 07:49:28;;;;;;;16.38;12.13;;;;;;;16.30;100.00;100624.97;4957358;28;20037;-88
2022/09/08 07:51:59;;;;;;;15.20;12.13;;;;;;;16.60;100.00;100629.75;4977166;28;20042;-88
2022/09/08 07:54:46;;;;;;;17.38;11.82;;;;;;;17.24;100.00;100625.53;4977073;28;20023;-89
2022/09/08 07:57:33;;;;;;;13.15;10.93;;;;;;;17.34;96.97;100624.66;4973055;28;20058;-89
2022/09/08 08:00:09;;;;;;;15.23;10.00;;;;;;;17.52;95.90;100619.59;4972588;28;20023;-90
2022/09/08 08:02:56;;;;;;;13.80;9.40;;;;;;;17.74;93.62;100636.63;4955258;28;20038;-88
2022/09/08 08:05:29;;;;;;;9.52;7.20;;;;;;;18.40;89.72;100621.09;4972648;28;20384;-89
2022/09/08 08:08:24;;;;;;;;;;;;;;;18.59;93.28;100637.34;4971760;28;20042;-91
2022/09/08 08:11:06;;;;;;;7.53;6.18;;;;;;;19.34;85.76;100632.50;4952457;28;19914;-90
2022/09/08 08:13:37;;;;;;;4.90;3.40;;;;;;;19.76;80.02;100629.59;4974020;28;20011;-93
2022/09/08 08:16:05;;;;;;;4.25;3.20;;;;;;;19.81;81.15;100633.56;4973333;28;20046;-89
2022/09/08 08:18:37;;;;;;;10.43;3.45;;;;;;;20.50;77.66;100637.88;4954109;28;20038;-91
2022/09/08 08:21:14;;;;;;;4.20;2.83;;;;;;;20.74;77.66;100639.25;4956665;29;20102;-90
2022/09/08 08:23:48;;;;;;;4.40;2.70;;;;;;;19.84;77.28;100640.53;4960863;29;20037;-87
2022/09/08 08:26:33;;;;;;;4.70;2.80;;;;;;;19.59;80.73;100639.22;4961706;28;20057;-89
2022/09/08 08:29:11;;;;;;;5.03;3.20;;;;;;;20.76;80.35;100632.66;4973694;28;20030;-89
2022/09/08 08:31:56;;;;;;;3.67;2.78;;;;;;;20.62;75.76;100631.31;4973265;28;20393;-88
2022/09/08 08:34:28;;;;;;;5.00;2.90;;;;;;;19.50;76.35;100640.06;4973519;28;20042;-90
2022/09/08 08:37:03;;;;;;;5.22;2.72;;;;;;;18.85;80.00;100642.31;4974045;28;20046;-89
2022/09/08 08:39:30;;;;;;;5.97;3.40;;;;;;;18.47;81.32;100645.66;4974004;28;20061;-90
2022/09/08 08:42:16;;;;;;;5.47;3.03;;;;;;;18.10;82.77;100644.31;4972811;28;20462;-90
2022/09/08 08:44:48;;;;;;;5.60;3.33;;;;;;;17.86;84.31;100655.31;4974277;28;20098;-88
2022/09/08 08:47:35;;;;;;;5.57;3.40;;;;;;;17.95;84.76;100651.00;4973772;28;20034;-90
2022/09/08 08:50:26;;;;;;;5.00;3.42;;;;;;;18.72;81.79;100639.84;4976212;28;20031;-90
2022/09/08 08:53:03;;;;;;;4.75;3.00;;;;;;;18.34;83.38;100653.94;4975119;28;20057;-89
2022/09/08 08:55:48;;;;;;;4.30;3.03;;;;;;;18.01;83.94;100652.31;4980820;28;20404;-89
2022/09/08 08:58:24;;;;;;;7.47;2.95;;;;;;;17.92;84.49;100641.31;4970299;28;20041;-89
2022/09/08 09:01:09;;;;;;;4.85;2.25;;;;;;;18.45;81.83;100647.63;4987749;28;20030;-89
2022/09/08 09:03:59;;;;;;;5.28;2.40;;;;;;;18.96;81.52;100631.41;4984370;28;20042;-91
2022/09/08 09:06:36;;;;;;;6.18;2.25;;;;;;;21.04;75.87;100638.94;4981211;28;20031;-90
2022/09/08 09:09:07;;;;;;;2.72;1.77;;;;;;;22.67;66.28;100638.75;4978010;28;20045;-91
2022/09/08 09:11:55;;;;;;;5.03;1.88;;;;;;;22.27;71.09;100635.59;4974256;28;20034;-90
2022/09/08 09:14:55;;;;;;;3.22;1.60;;;;;;;22.47;68.67;100629.97;4955855;28;20026;-91
2022/09/08 09:17:35;;;;;;;5.15;2.25;;;;;;;23.59;61.23;100622.44;4972427;28;20390;-90
2022/09/08 09:20:29;;;;;;;5.32;1.80;;;;;;;23.70;60.90;100626.75;4972653;28;20117;-91
2022/09/08 09:23:02;;;;;;;6.45;1.80;;;;;;;25.31;58.18;100623.00;4976566;28;20307;-88
2022/09/08 09:25:35;;;;;;;4.47;1.38;;;;;;;25.86;53.21;100644.78;4957298;28;20086;-91
2022/09/08 09:28:32;;;;;;;1.92;1.20;;;;;;;26.03;52.79;100636.28;4954842;28;20027;-91
2022/09/08 09:31:32;;;;;;;4.15;1.25;;;;;;;26.23;55.87;100644.81;4958154;29;20110;-90
2022/09/08 09:34:31;;;;;;;4.05;1.15;;;;;;;27.01;55.25;100643.47;4959062;28;20122;-92
2022/09/08 09:37:19;;;;;;;3.70;1.20;;;;;;;28.34;50.95;100644.03;4971139;28;20125;-91
2022/09/08 09:40:05;;;;;;;3.83;1.35;;;;;;;29.03;43.14;100639.50;4975749;28;20065;-90
2022/09/08 09:42:46;;;;;;;4.53;1.40;;;;;;;29.43;45.22;100647.88;4979047;28;20082;-92
2022/09/08 09:45:30;;;;;;;3.08;1.17;;;;;;;29.25;45.79;100642.94;4975829;28;20703;-92
2022/09/08 09:48:14;;;;;;;3.35;1.50;;;;;;;26.97;48.38;100649.50;4958091;29;20027;-93
2022/09/08 09:51:04;;;;;;;4.60;1.50;;;;;;;25.07;51.91;100651.16;4958238;29;20031;-93
2022/09/08 09:53:38;;;;;;;5.25;1.45;;;;;;;23.81;52.31;100644.56;4965177;28;20038;-92
2022/09/08 09:56:31;;;;;;;2.80;1.27;;;;;;;22.96;56.55;100654.69;4975645;28;20392;-94
2022/09/08 09:59:18;;;;;;;4.35;1.63;;;;;;;24.87;52.73;100654.47;4977161;28;20301;-93
2022/09/08 10:02:21;;;;;;;2.25;1.10;;;;;;;27.32;47.00;100650.59;4983516;28;20039;-95
2022/09/08 10:05:14;;;;;;;4.05;1.10;;;;;;;27.59;44.25;100649.03;4983495;28;20042;-93
2022/09/08 10:08:13;;;;;;;3.53;1.23;;;;;;;27.95;45.78;100646.25;4983883;28;20097;-92
2022/09/08 10:10:44;;;;;;;6.20;1.50;;;;;;;27.11;43.14;100654.13;4982533;28;20039;-93
2022/09/08 10:13:34;;;;;;;6.55;1.52;;;;;;;26.08;49.02;100652.09;4979382;28;20057;-93
2022/09/08 10:15:59;;;;;;;5.85;1.45;;;;;;;26.67;45.47;100654.13;4983102;28;20030;-90
2022/09/08 10:18:28;;;;;;;2.60;1.10;;;;;;;26.66;43.34;100658.72;4981440;28;20065;-92
2022/09/08 10:21:27;;;;;;;4.28;1.23;;;;;;;26.13;46.32;100657.88;4979039;28;20635;-91
2022/09/08 10:24:14;;;;;;;6.35;1.40;;;;;;;28.60;44.04;100657.97;4977776;28;20038;-92
2022/09/08 10:27:01;;;;;;;6.03;1.25;;;;;;;30.21;40.62;100655.63;4981767;28;20042;-93
2022/09/08 10:29:49;;;;;;;3.92;1.40;;;;;;;31.19;37.05;100664.78;4980494;28;20031;-92
2022/09/08 10:32:30;;;;;;;4.60;1.40;;;;;;;31.04;38.03;100655.09;4978771;28;20019;-93
2022/09/08 10:35:04;;;;;;;2.47;1.10;;;;;;;28.93;39.57;100660.06;4982331;28;20090;-93
2022/09/08 10:37:48;;;;;;;5.93;1.77;;;;;;;27.25;42.59;100669.66;4985872;28;20094;-91
2022/09/08 10:40:13;;;;;;;5.63;1.23;;;;;;;25.48;44.39;100653.72;4978887;28;20199;-91
2022/09/08 10:42:49;;;;;;;5.20;1.40;;;;;;;24.39;48.37;100664.47;4978056;28;20051;-92
2022/09/08 10:45:39;;;;;;;3.08;1.17;;;;;;;24.64;48.37;100657.13;4977360;28;20298;-91
2022/09/08 10:48:39;;;;;;;4.78;1.35;;;;;;;26.75;47.26;100657.63;4977240;28;20039;-91
2022/09/08 10:51:29;;;;;;;5.85;1.33;;;;;;;26.83;44.13;100653.94;4978676;28;20030;-91
2022/09/08 10:54:14;;;;;;;5.63;1.40;;;;;;;29.00;40.63;100645.38;4959812;29;20043;-92
2022/09/08 10:56:42;;;;;;;3.25;1.27;;;;;;;29.00;38.20;100644.53;4970960;28;20027;-92
2022/09/08 10:59:45;;;;;;;3.67;1.30;;;;;;;27.96;42.45;100638.91;4974409;29;20016;-94
2022/09/08 11:02:19;;;;;;;2.73;1.43;;;;;;;26.13;44.06;100641.50;4982696;28;20027;-91
2022/09/08 11:05:14;;;;;;;3.90;1.05;;;;;;;24.87;46.17;100644.44;4995476;28;20321;-91
2022/09/08 11:08:06;;;;;;;3.78;1.60;;;;;;;24.83;48.43;100648.53;4994690;28;20050;-92
2022/09/08 11:10:46;;;;;;;4.85;1.30;;;;;;;26.13;44.05;100646.97;4996207;28;20082;-92
2022/09/08 11:13:23;;;;;;;3.05;1.20;;;;;;;28.06;42.55;100636.69;4995095;28;20030;-93
2022/09/08 11:15:54;;;;;;;5.00;1.30;;;;;;;30.69;36.69;100623.25;4994515;28;20066;-93
2022/09/08 11:18:51;;;;;;;4.50;1.75;;;;;;;31.87;34.89;100636.72;4994990;28;20030;-93
2022/09/08 11:21:25;;;;;;;5.43;1.50;;;;;;;31.29;34.13;100636.00;4980629;28;20039;-93
2022/09/08 11:24:00;;;;;;;4.95;1.45;;;;;;;32.09;33.74;100628.06;4977418;28;20019;-92
2022/09/08 11:26:44;;;;;;;3.50;1.40;;;;;;;32.97;30.23;100625.09;4975413;28;20033;-93
2022/09/08 11:29:13;;;;;;;4.13;1.10;;;;;;;33.61;29.54;100633.81;4976607;28;20113;-94
2022/09/08 11:31:52;;;;;;;7.63;2.75;;;;;;;34.97;28.67;100625.53;4976561;28;20083;-92
2022/09/08 11:34:43;;;;;;;3.88;1.52;;;;;;;33.62;31.48;100621.72;4974797;28;20042;-92
2022/09/08 11:37:31;;;;;;;6.10;1.58;;;;;;;31.30;32.77;100615.66;4957553;28;20056;-92
2022/09/08 11:40:18;;;;;;;3.55;1.27;;;;;;;29.40;36.36;100614.53;4956704;29;20174;-93
2022/09/08 11:42:49;;;;;;;2.65;1.00;;;;;;;30.22;33.34;100625.25;4957764;29;20111;-93
2022/09/08 11:45:26;;;;;;;4.63;1.30;;;;;;;32.16;31.06;100618.69;4966686;28;20085;-91
2022/09/08 11:48:16;;;;;;;3.92;1.20;;;;;;;33.94;28.40;100611.22;4976137;28;20039;-90